createdAt,value
2019-06-07T00:00:52.462Z,18.27
2019-06-07T00:03:29.468Z,18.10
2019-06-07T00:05:53.581Z,17.94
2019-06-07T00:08:28.515Z,18.08
2019-06-07T00:10:54.657Z,18.04
2019-06-07T00:13:24.246Z,18.06
2019-06-07T00:15:53.753Z,18.04
2019-06-07T00:18:26.011Z,18.10
2019-06-07T00:20:55.010Z,18.06
2019-06-07T00:23:24.512Z,18.18
2019-06-07T00:25:54.050Z,18.02
2019-06-07T00:28:23.555Z,18.35
2019-06-07T00:30:53.240Z,18.38
2019-06-07T00:33:24.795Z,18.36
2019-06-07T00:35:54.049Z,18.15
2019-06-07T00:38:23.554Z,18.29
2019-06-07T00:40:53.302Z,18.12
2019-06-07T00:43:27.948Z,18.20
2019-06-07T00:45:54.024Z,18.30
2019-06-07T00:48:30.849Z,18.45
2019-06-07T00:50:55.203Z,18.40
2019-06-07T00:53:31.577Z,18.48
2019-06-07T00:55:57.676Z,18.48
2019-06-07T00:58:29.328Z,18.54
2019-06-07T01:00:58.556Z,18.60
2019-06-07T01:03:28.174Z,18.60
2019-06-07T01:05:57.779Z,18.51
2019-06-07T01:08:29.843Z,18.38
2019-06-07T01:10:58.802Z,18.38
2019-06-07T01:13:28.396Z,18.37
2019-06-07T01:15:58.046Z,18.15
2019-06-07T01:18:39.098Z,18.42
2019-06-07T01:20:59.011Z,18.38
2019-06-07T01:24:05.453Z,18.35
2019-06-07T01:26:01.794Z,18.22
2019-06-07T01:28:31.315Z,18.30
2019-06-07T01:31:01.113Z,18.15
2019-06-07T01:33:49.830Z,18.11
2019-06-07T01:36:02.079Z,18.22
2019-06-07T01:38:31.576Z,18.33
2019-06-07T01:41:01.209Z,18.32
2019-06-07T01:43:31.273Z,17.87
2019-06-07T01:46:01.065Z,17.98
2019-06-07T01:48:48.416Z,17.82
2019-06-07T01:51:03.083Z,17.75
2019-06-07T01:53:32.615Z,17.43
2019-06-07T01:56:02.269Z,17.68
2019-06-07T01:58:31.976Z,17.68
2019-06-07T02:01:01.553Z,17.77
2019-06-07T02:03:33.120Z,17.81
2019-06-07T02:06:02.813Z,17.63
2019-06-07T02:08:34.189Z,17.38
2019-06-07T02:11:04.305Z,17.61
2019-06-07T02:13:33.916Z,17.57
2019-06-07T02:16:03.550Z,17.37
2019-06-07T02:18:34.979Z,17.28
2019-06-07T02:21:04.516Z,17.47
2019-06-07T02:23:34.105Z,17.31
2019-06-07T02:26:03.768Z,17.36
2019-06-07T02:28:44.253Z,17.34
2019-06-07T02:31:04.621Z,17.40
2019-06-07T02:33:39.999Z,17.36
2019-06-07T02:36:05.767Z,17.28
2019-06-07T02:38:37.425Z,17.02
2019-06-07T02:41:06.934Z,17.25
2019-06-07T02:43:37.314Z,17.03
2019-06-07T02:46:25.118Z,17.31
2019-06-07T02:48:43.030Z,17.32
2019-06-07T02:51:12.708Z,17.35
2019-06-07T02:53:42.221Z,17.18
2019-06-07T02:56:37.743Z,17.32
2019-06-07T02:58:43.037Z,17.31
2019-06-07T03:01:12.683Z,17.30
2019-06-07T03:03:42.473Z,17.29
2019-06-07T03:06:14.829Z,17.25
2019-06-07T03:08:47.060Z,16.90
2019-06-07T03:11:17.426Z,17.05
2019-06-07T03:13:48.490Z,17.16
2019-06-07T03:16:37.249Z,17.18
2019-06-07T03:19:10.189Z,17.06
2019-06-07T03:21:41.931Z,17.11
2019-06-07T03:24:11.515Z,17.10
2019-06-07T03:27:32.178Z,16.99
2019-06-07T03:29:13.140Z,17.23
2019-06-07T03:31:47.606Z,17.26
2019-06-07T03:34:14.251Z,17.24
2019-06-07T03:36:44.150Z,17.09
2019-06-07T03:39:14.132Z,16.89
2019-06-07T03:42:04.562Z,17.07
2019-06-07T03:44:15.162Z,17.41
2019-06-07T03:46:44.774Z,17.36
2019-06-07T03:49:14.579Z,17.46
2019-06-07T03:51:44.408Z,17.53
2019-06-07T03:54:14.146Z,17.41
2019-06-07T03:56:44.186Z,17.21
2019-06-07T03:59:13.909Z,17.29
2019-06-07T04:01:43.624Z,17.43
2019-06-07T04:04:13.330Z,17.39
2019-06-07T04:06:43.339Z,17.32
2019-06-07T04:09:13.235Z,17.13
2019-06-07T04:11:42.910Z,17.05
2019-06-07T04:14:12.620Z,16.83
2019-06-07T04:16:44.816Z,16.77
2019-06-07T04:19:13.874Z,16.85
2019-06-07T04:21:43.759Z,16.88
2019-06-07T04:24:14.188Z,16.90
2019-06-07T04:26:46.719Z,17.03
2019-06-07T04:29:35.696Z,16.93
2019-06-07T04:31:47.315Z,16.94
2019-06-07T04:34:17.333Z,17.10
2019-06-07T04:36:58.632Z,17.28
2019-06-07T04:39:20.757Z,17.32
2019-06-07T04:41:51.928Z,17.35
2019-06-07T04:44:23.732Z,17.57
2019-06-07T04:46:54.906Z,17.74
2019-06-07T04:49:25.603Z,17.98
2019-06-07T04:51:57.770Z,18.08
2019-06-07T04:54:27.519Z,18.09
2019-06-07T04:56:57.310Z,18.20
2019-06-07T05:00:07.390Z,18.39
2019-06-07T05:01:59.341Z,18.13
2019-06-07T05:04:31.332Z,18.38
2019-06-07T05:07:00.424Z,18.43
2019-06-07T05:09:30.277Z,18.49
2019-06-07T05:12:00.245Z,18.61
2019-06-07T05:14:32.806Z,18.45
2019-06-07T05:17:02.234Z,18.30
2019-06-07T05:19:35.266Z,18.52
2019-06-07T05:22:05.103Z,18.93
2019-06-07T05:24:37.656Z,19.01
2019-06-07T05:27:05.752Z,18.98
2019-06-07T05:29:38.359Z,19.02
2019-06-07T05:32:07.123Z,19.06
2019-06-07T05:34:39.206Z,19.00
2019-06-07T05:37:11.921Z,18.52
2019-06-07T05:39:42.590Z,18.62
2019-06-07T05:42:10.575Z,18.78
2019-06-07T05:44:45.159Z,18.98
2019-06-07T05:47:11.605Z,18.95
2019-06-07T05:49:44.535Z,19.06
2019-06-07T05:52:12.513Z,19.44
2019-06-07T05:54:43.182Z,19.60
2019-06-07T05:57:13.208Z,19.71
2019-06-07T05:59:45.047Z,19.88
2019-06-07T06:02:22.647Z,19.98
2019-06-07T06:04:48.997Z,19.94
2019-06-07T06:07:16.751Z,19.70
2019-06-07T06:09:47.518Z,19.49
2019-06-07T06:12:34.245Z,19.45
2019-06-07T06:14:48.704Z,19.27
2019-06-07T06:17:18.227Z,19.14
2019-06-07T06:19:52.447Z,19.29
2019-06-07T06:22:19.137Z,19.63
2019-06-07T06:25:28.818Z,19.38
2019-06-07T06:28:02.831Z,19.87
2019-06-07T06:29:52.631Z,20.02
2019-06-07T06:34:55.523Z,20.31
2019-06-07T06:37:24.718Z,20.40
2019-06-07T06:39:54.200Z,20.54
2019-06-07T06:42:23.769Z,20.48
2019-06-07T06:44:54.255Z,20.56
2019-06-07T06:47:24.097Z,20.57
2019-06-07T06:49:54.456Z,20.60
2019-06-07T06:52:25.367Z,20.42
2019-06-07T06:55:00.426Z,20.55
2019-06-07T06:57:26.186Z,20.68
2019-06-07T06:59:55.723Z,20.48
2019-06-07T07:02:25.502Z,20.89
2019-06-07T07:04:55.293Z,21.01
2019-06-07T07:07:27.252Z,20.82
2019-06-07T07:09:59.538Z,20.91
2019-06-07T07:12:29.263Z,21.14
2019-06-07T07:14:58.864Z,21.11
2019-06-07T07:17:48.013Z,21.22
2019-06-07T07:19:59.701Z,21.03
2019-06-07T07:22:29.584Z,21.44
2019-06-07T07:24:59.345Z,21.66
2019-06-07T07:27:28.848Z,21.70
2019-06-07T07:30:34.814Z,21.48
2019-06-07T07:32:29.754Z,21.76
2019-06-07T07:35:00.671Z,22.02
2019-06-07T07:37:33.214Z,22.03
2019-06-07T07:40:54.831Z,22.26
2019-06-07T07:42:33.993Z,22.26
2019-06-07T07:45:03.985Z,22.64
2019-06-07T07:47:33.889Z,22.82
2019-06-07T07:50:05.211Z,22.91
2019-06-07T07:52:36.598Z,22.62
2019-06-07T07:55:07.098Z,22.77
2019-06-07T07:57:36.766Z,22.88
2019-06-07T08:00:48.528Z,22.84
2019-06-07T08:02:41.317Z,23.11
2019-06-07T08:05:23.459Z,23.28
2019-06-07T08:07:44.267Z,23.36
2019-06-07T08:10:14.356Z,23.19
2019-06-07T08:13:00.100Z,23.23
2019-06-07T08:15:16.446Z,23.46
2019-06-07T08:17:47.235Z,23.30
2019-06-07T08:20:18.056Z,23.36
2019-06-07T08:22:47.761Z,23.07
2019-06-07T08:25:17.588Z,23.43
2019-06-07T08:27:47.166Z,23.04
2019-06-07T08:30:47.370Z,23.23
2019-06-07T08:32:51.534Z,22.92
2019-06-07T08:36:03.235Z,22.72
2019-06-07T08:38:21.488Z,23.05
2019-06-07T08:40:24.570Z,22.93
2019-06-07T08:43:15.211Z,23.35
2019-06-07T08:45:26.318Z,23.72
2019-06-07T08:47:57.956Z,23.89
2019-06-07T08:50:27.430Z,24.04
2019-06-07T08:53:05.098Z,23.94
2019-06-07T08:55:28.525Z,24.04
2019-06-07T08:58:05.769Z,24.08
2019-06-07T09:00:45.638Z,24.32
2019-06-07T09:03:05.158Z,23.83
2019-06-07T09:05:33.103Z,24.24
2019-06-07T09:08:23.823Z,24.47
2019-06-07T09:10:35.152Z,24.65
2019-06-07T09:13:11.400Z,25.04
2019-06-07T09:15:36.473Z,25.13
2019-06-07T09:20:49.548Z,24.80
2019-06-07T09:23:19.326Z,24.60
2019-06-07T09:26:04.859Z,25.18
2019-06-07T09:28:21.106Z,24.91
2019-06-07T09:30:50.758Z,25.19
2019-06-07T09:33:20.344Z,25.66
2019-06-07T09:35:49.935Z,25.83
2019-06-07T09:38:25.789Z,25.77
2019-06-07T09:40:50.811Z,25.49
2019-06-07T09:45:51.633Z,25.78
2019-06-07T09:49:01.313Z,26.12
2019-06-07T09:50:52.850Z,25.93
2019-06-07T09:53:23.487Z,25.66
2019-06-07T09:55:53.230Z,25.76
2019-06-07T10:00:54.319Z,25.67
2019-06-07T10:03:23.877Z,25.89
2019-06-07T10:05:53.579Z,26.01
2019-06-07T10:09:42.528Z,25.43
2019-06-07T10:10:54.440Z,25.26
2019-06-07T10:13:24.393Z,25.35
2019-06-07T10:15:53.923Z,25.37
2019-06-07T10:18:23.428Z,25.52
2019-06-07T10:20:52.968Z,25.65
2019-06-07T10:23:22.477Z,26.25
2019-06-07T10:25:52.309Z,26.21
2019-06-07T10:28:22.219Z,26.31
2019-06-07T10:30:51.804Z,25.38
2019-06-07T10:33:21.383Z,25.21
2019-06-07T10:35:51.264Z,25.06
2019-06-07T10:38:20.783Z,25.14
2019-06-07T10:40:50.295Z,25.20
2019-06-07T10:43:19.943Z,25.43
2019-06-07T10:45:49.518Z,25.48
2019-06-07T10:48:19.082Z,25.42
2019-06-07T10:50:48.673Z,25.37
2019-06-07T10:53:18.200Z,25.90
2019-06-07T10:55:47.778Z,26.21
2019-06-07T10:58:17.551Z,25.96
2019-06-07T11:00:47.464Z,25.82
2019-06-07T11:03:16.988Z,25.97
2019-06-07T11:05:46.579Z,26.34
2019-06-07T11:08:16.196Z,26.18
2019-06-07T11:10:45.704Z,26.24
2019-06-07T11:13:15.233Z,26.36
2019-06-07T11:15:44.782Z,26.14
2019-06-07T11:18:14.548Z,26.15
2019-06-07T11:20:47.050Z,25.92
2019-06-07T11:23:16.551Z,25.46
2019-06-07T11:25:46.106Z,24.85
2019-06-07T11:28:15.635Z,24.75
2019-06-07T11:30:45.184Z,25.19
2019-06-07T11:33:16.306Z,24.88
2019-06-07T11:35:46.224Z,25.54
2019-06-07T11:38:15.718Z,25.85
2019-06-07T11:40:45.346Z,25.48
2019-06-07T11:43:15.089Z,25.31
2019-06-07T11:45:44.584Z,25.87
2019-06-07T11:48:15.378Z,26.51
2019-06-07T11:50:45.484Z,26.87
2019-06-07T11:53:14.990Z,27.33
2019-06-07T11:55:44.570Z,27.74
2019-06-07T11:58:17.298Z,28.17
2019-06-07T12:00:45.617Z,28.00
2019-06-07T12:03:15.919Z,28.14
2019-06-07T12:05:45.635Z,27.84
2019-06-07T12:08:16.076Z,27.01
2019-06-07T12:10:45.788Z,26.89
2019-06-07T12:13:15.910Z,26.57
2019-06-07T12:15:49.203Z,25.83
2019-06-07T12:18:19.654Z,26.12
2019-06-07T12:20:49.576Z,26.51
2019-06-07T12:23:20.135Z,26.74
2019-06-07T12:25:49.844Z,26.82
2019-06-07T12:28:20.899Z,26.87
2019-06-07T12:30:50.567Z,27.06
2019-06-07T12:33:20.135Z,26.73
2019-06-07T12:35:49.675Z,26.15
2019-06-07T12:38:20.884Z,26.54
2019-06-07T12:40:57.448Z,26.30
2019-06-07T12:43:23.312Z,25.84
2019-06-07T12:45:52.989Z,26.29
2019-06-07T12:48:25.808Z,25.85
2019-06-07T12:50:53.873Z,25.95
2019-06-07T12:53:26.688Z,25.75
2019-06-07T12:55:54.623Z,25.79
2019-06-07T12:58:32.610Z,25.99
2019-06-07T13:00:59.373Z,26.41
2019-06-07T13:03:26.735Z,26.80
2019-06-07T13:05:56.340Z,26.71
2019-06-07T13:08:25.914Z,26.90
2019-06-07T13:10:55.505Z,26.42
2019-06-07T13:13:25.022Z,26.69
2019-06-07T13:15:54.543Z,26.30
2019-06-07T13:18:25.266Z,25.83
2019-06-07T13:20:55.755Z,25.91
2019-06-07T13:23:25.443Z,26.11
2019-06-07T13:25:54.944Z,26.14
2019-06-07T13:28:24.831Z,26.57
2019-06-07T13:30:54.438Z,26.26
2019-06-07T13:33:25.652Z,25.88
2019-06-07T13:35:55.289Z,25.90
2019-06-07T13:38:29.068Z,25.59
2019-06-07T13:40:58.830Z,25.98
2019-06-07T13:43:28.690Z,25.87
2019-06-07T13:45:58.187Z,26.02
2019-06-07T13:48:27.989Z,26.08
2019-06-07T13:50:57.631Z,26.24
2019-06-07T13:53:27.138Z,26.38
2019-06-07T13:55:56.644Z,26.32
2019-06-07T13:58:26.470Z,25.79
2019-06-07T14:00:56.094Z,25.56
2019-06-07T14:03:29.282Z,25.72
2019-06-07T14:05:57.199Z,25.79
2019-06-07T14:08:27.320Z,25.99
2019-06-07T14:10:56.964Z,25.79
2019-06-07T14:13:27.988Z,25.92
2019-06-07T14:15:57.599Z,25.65
2019-06-07T14:18:28.625Z,25.78
2019-06-07T14:20:59.252Z,26.03
2019-06-07T14:23:45.939Z,26.73
2019-06-07T14:26:00.056Z,26.98
2019-06-07T14:28:31.917Z,26.49
2019-06-07T14:31:00.827Z,26.22
2019-06-07T14:33:31.865Z,26.38
2019-06-07T14:36:01.867Z,26.62
2019-06-07T14:38:35.415Z,26.53
2019-06-07T14:41:02.673Z,26.52
2019-06-07T14:43:33.956Z,26.34
2019-06-07T14:46:03.437Z,25.56
2019-06-07T14:48:33.028Z,25.41
2019-06-07T14:51:02.819Z,25.69
2019-06-07T14:53:33.065Z,25.45
2019-06-07T14:56:02.810Z,25.88
2019-06-07T14:58:38.141Z,25.65
2019-06-07T15:01:03.697Z,25.82
2019-06-07T15:03:34.808Z,25.98
2019-06-07T15:06:04.760Z,26.25
2019-06-07T15:08:34.934Z,26.54
2019-06-07T15:11:04.614Z,26.87
2019-06-07T15:13:35.620Z,27.19
2019-06-07T15:16:05.339Z,27.15
2019-06-07T15:18:36.126Z,27.15
2019-06-07T15:21:07.052Z,26.56
2019-06-07T15:23:36.550Z,26.80
2019-06-07T15:26:06.195Z,26.89
2019-06-07T15:28:36.758Z,26.63
2019-06-07T15:31:07.048Z,26.72
2019-06-07T15:33:37.961Z,26.74
2019-06-07T15:36:08.277Z,26.88
2019-06-07T15:38:39.211Z,27.12
2019-06-07T15:41:10.768Z,27.00
2019-06-07T15:43:40.316Z,26.86
2019-06-07T15:46:09.878Z,27.01
2019-06-07T15:48:40.188Z,26.80
2019-06-07T15:51:10.775Z,26.88
2019-06-07T15:53:44.188Z,26.69
2019-06-07T15:56:11.837Z,26.69
2019-06-07T15:58:41.473Z,26.78
2019-06-07T16:01:11.101Z,26.62
2019-06-07T16:03:42.111Z,26.45
2019-06-07T16:06:12.024Z,26.41
2019-06-07T16:08:42.616Z,26.23
2019-06-07T16:11:12.290Z,26.25
2019-06-07T16:13:42.842Z,26.33
2019-06-07T16:16:14.073Z,26.50
2019-06-07T16:18:44.258Z,26.99
2019-06-07T16:21:14.357Z,26.71
2019-06-07T16:23:44.177Z,26.74
2019-06-07T16:26:13.853Z,26.81
2019-06-07T16:28:44.669Z,26.81
2019-06-07T16:31:14.336Z,26.89
2019-06-07T16:33:45.121Z,26.89
2019-06-07T16:36:14.941Z,27.02
2019-06-07T16:38:44.463Z,26.78
2019-06-07T16:41:13.962Z,26.88
2019-06-07T16:43:44.767Z,27.07
2019-06-07T16:46:14.574Z,26.97
2019-06-07T16:48:45.150Z,26.85
2019-06-07T16:51:14.760Z,26.91
2019-06-07T16:53:44.582Z,26.88
2019-06-07T16:56:14.214Z,27.06
2019-06-07T16:58:44.408Z,27.07
2019-06-07T17:01:14.058Z,26.64
2019-06-07T17:03:43.620Z,26.74
2019-06-07T17:06:13.117Z,26.93
2019-06-07T17:08:44.140Z,27.09
2019-06-07T17:11:13.871Z,27.29
2019-06-07T17:13:44.421Z,27.45
2019-06-07T17:16:13.986Z,27.21
2019-06-07T17:18:45.205Z,27.03
2019-06-07T17:21:14.857Z,26.80
2019-06-07T17:23:45.330Z,26.89
2019-06-07T17:26:15.019Z,26.96
2019-06-07T17:28:45.816Z,27.07
2019-06-07T17:31:15.388Z,26.97
2019-06-07T17:33:46.041Z,26.97
2019-06-07T17:36:15.673Z,26.90
2019-06-07T17:38:46.451Z,26.59
2019-06-07T17:41:16.171Z,26.77
2019-06-07T17:43:52.053Z,26.92
2019-06-07T17:46:17.144Z,26.57
2019-06-07T17:48:49.802Z,26.47
2019-06-07T17:51:19.424Z,26.36
2019-06-07T17:53:49.956Z,26.35
2019-06-07T17:56:19.623Z,26.50
2019-06-07T17:58:50.498Z,26.65
2019-06-07T18:01:20.256Z,26.88
2019-06-07T18:03:51.160Z,26.71
2019-06-07T18:06:21.170Z,26.67
2019-06-07T18:08:51.881Z,26.70
2019-06-07T18:11:21.944Z,27.13
2019-06-07T18:14:06.875Z,27.01
2019-06-07T18:16:22.720Z,26.56
2019-06-07T18:18:52.802Z,26.76
2019-06-07T18:21:22.461Z,26.90
2019-06-07T18:23:53.001Z,26.68
2019-06-07T18:26:26.941Z,26.59
2019-06-07T18:28:56.705Z,26.32
2019-06-07T18:31:26.296Z,26.57
2019-06-07T18:33:55.920Z,26.75
2019-06-07T18:36:25.592Z,26.92
2019-06-07T18:38:55.210Z,27.14
2019-06-07T18:41:24.809Z,26.90
2019-06-07T18:43:55.360Z,26.86
2019-06-07T18:46:25.175Z,26.70
2019-06-07T18:48:54.874Z,26.58
2019-06-07T18:51:24.432Z,26.46
2019-06-07T18:53:54.030Z,26.71
2019-06-07T18:56:23.925Z,26.78
2019-06-07T18:58:53.600Z,26.83
2019-06-07T19:01:23.272Z,26.81
2019-06-07T19:03:53.948Z,26.64
2019-06-07T19:06:23.757Z,26.51
2019-06-07T19:08:55.547Z,26.49
2019-06-07T19:11:24.804Z,26.52
2019-06-07T19:13:55.054Z,26.45
2019-06-07T19:16:24.621Z,26.56
2019-06-07T19:18:54.221Z,26.55
2019-06-07T19:21:23.826Z,26.42
2019-06-07T19:23:53.845Z,26.33
2019-06-07T19:26:23.768Z,26.29
2019-06-07T19:28:53.301Z,26.24
2019-06-07T19:31:22.864Z,26.21
2019-06-07T19:33:53.115Z,26.06
2019-06-07T19:36:22.698Z,25.92
2019-06-07T19:38:52.212Z,25.96
2019-06-07T19:41:21.766Z,26.03
2019-06-07T19:43:52.108Z,25.99
2019-06-07T19:46:21.819Z,25.96
2019-06-07T19:48:52.487Z,25.88
2019-06-07T19:51:22.043Z,25.97
2019-06-07T19:53:52.856Z,25.83
2019-06-07T19:56:22.542Z,25.86
2019-06-07T19:58:53.397Z,25.85
2019-06-07T20:01:22.959Z,25.90
2019-06-07T20:03:53.747Z,25.83
2019-06-07T20:06:23.368Z,25.91
2019-06-07T20:08:52.872Z,25.84
2019-06-07T20:11:22.437Z,25.64
2019-06-07T20:13:52.039Z,25.72
2019-06-07T20:16:21.584Z,25.67
2019-06-07T20:18:53.137Z,25.65
2019-06-07T20:21:22.726Z,25.65
2019-06-07T20:23:52.278Z,25.55
2019-06-07T20:26:21.826Z,25.62
2019-06-07T20:28:51.350Z,25.70
2019-06-07T20:31:20.861Z,25.69
2019-06-07T20:33:50.427Z,25.73
2019-06-07T20:36:20.191Z,25.75
2019-06-07T20:38:49.784Z,25.53
2019-06-07T20:41:19.457Z,25.58
2019-06-07T20:43:49.006Z,25.63
2019-06-07T20:46:18.519Z,25.65
2019-06-07T20:48:48.092Z,25.64
2019-06-07T20:51:17.749Z,25.58
2019-06-07T20:53:47.413Z,25.67
2019-06-07T20:56:16.978Z,25.78
2019-06-07T20:58:46.856Z,25.80
2019-06-07T21:01:16.424Z,25.67
2019-06-07T21:03:46.155Z,25.64
2019-06-07T21:06:16.659Z,25.64
2019-06-07T21:08:46.203Z,25.69
2019-06-07T21:11:16.311Z,25.71
2019-06-07T21:13:45.825Z,25.64
2019-06-07T21:16:15.497Z,25.69
2019-06-07T21:18:45.041Z,25.39
2019-06-07T21:21:14.553Z,25.62
2019-06-07T21:23:44.138Z,25.81
2019-06-07T21:26:13.961Z,25.66
2019-06-07T21:28:43.470Z,25.37
2019-06-07T21:31:12.981Z,25.46
2019-06-07T21:33:42.558Z,25.56
2019-06-07T21:36:12.227Z,25.52
2019-06-07T21:38:41.733Z,25.51
2019-06-07T21:41:12.590Z,25.37
2019-06-07T21:43:42.235Z,25.03
2019-06-07T21:46:19.608Z,24.79
2019-06-07T21:48:46.680Z,24.58
2019-06-07T21:51:16.333Z,23.57
2019-06-07T21:53:45.930Z,22.78
2019-06-07T21:56:15.500Z,21.79
2019-06-07T21:58:45.042Z,21.13
2019-06-07T22:01:19.118Z,20.22
2019-06-07T22:03:49.635Z,20.13
2019-06-07T22:06:19.323Z,20.11
2019-06-07T22:08:49.854Z,20.08
2019-06-07T22:11:19.546Z,20.15
2019-06-07T22:13:49.457Z,20.29
2019-06-07T22:16:28.610Z,20.50
2019-06-07T22:18:50.505Z,21.09
2019-06-07T22:21:20.078Z,21.21
2019-06-07T22:23:49.609Z,21.27
2019-06-07T22:26:19.168Z,21.27
2019-06-07T22:28:48.959Z,21.29
2019-06-07T22:31:19.270Z,21.28
2019-06-07T22:33:48.911Z,21.19
2019-06-07T22:36:19.472Z,20.53
2019-06-07T22:38:49.185Z,20.58
2019-06-07T22:41:18.768Z,20.29
2019-06-07T22:43:48.346Z,20.40
2019-06-07T22:46:19.224Z,20.36
2019-06-07T22:48:48.971Z,20.10
2019-06-07T22:51:18.500Z,20.04
2019-06-07T22:53:47.998Z,20.38
2019-06-07T22:56:28.328Z,20.24
2019-06-07T22:58:57.977Z,19.95
2019-06-07T23:01:27.556Z,19.89
2019-06-07T23:03:57.199Z,20.01
2019-06-07T23:06:26.782Z,19.72
2019-06-07T23:08:56.276Z,20.00
2019-06-07T23:11:25.825Z,19.83
2019-06-07T23:13:55.335Z,19.86
2019-06-07T23:16:24.836Z,19.48
2019-06-07T23:18:54.467Z,19.81
2019-06-07T23:21:24.050Z,19.84
2019-06-07T23:23:53.584Z,19.76
2019-06-07T23:26:23.840Z,19.42
2019-06-07T23:28:53.341Z,18.91
2019-06-07T23:31:22.864Z,18.83
2019-06-07T23:33:52.492Z,19.00
2019-06-07T23:36:22.002Z,19.44
2019-06-07T23:38:51.499Z,19.60
2019-06-07T23:41:22.343Z,19.67
2019-06-07T23:43:52.331Z,19.63
2019-06-07T23:46:21.873Z,19.72
2019-06-07T23:48:51.466Z,19.74
2019-06-07T23:51:21.989Z,19.89
2019-06-07T23:53:52.184Z,19.66
2019-06-07T23:56:22.229Z,19.56
2019-06-07T23:58:52.022Z,19.25
